createdAt,value
2024-01-28T00:00:17.954Z,3.86
2024-01-28T00:01:17.940Z,3.86
2024-01-28T00:02:17.968Z,3.88
2024-01-28T00:03:17.850Z,3.87
2024-01-28T00:04:17.792Z,3.93
2024-01-28T00:05:17.830Z,3.93
2024-01-28T00:06:17.843Z,3.97
2024-01-28T00:07:17.764Z,4.02
2024-01-28T00:08:17.723Z,4.04
2024-01-28T00:09:17.762Z,4.02
2024-01-28T00:10:17.720Z,4.02
2024-01-28T00:11:17.715Z,4.02
2024-01-28T00:12:17.724Z,3.98
2024-01-28T00:13:18.772Z,3.98
2024-01-28T00:14:17.668Z,3.98
2024-01-28T00:15:17.679Z,3.98
2024-01-28T00:16:17.714Z,3.98
2024-01-28T00:17:17.700Z,4.02
2024-01-28T00:18:17.751Z,3.96
2024-01-28T00:19:17.709Z,3.94
2024-01-28T00:20:17.605Z,3.97
2024-01-28T00:21:17.642Z,3.96
2024-01-28T00:22:17.602Z,3.94
2024-01-28T00:23:17.582Z,3.94
2024-01-28T00:24:17.601Z,3.93
2024-01-28T00:25:17.566Z,3.90
2024-01-28T00:26:17.547Z,3.91
2024-01-28T00:27:17.641Z,3.91
2024-01-28T00:28:17.548Z,3.91
2024-01-28T00:29:17.532Z,3.91
2024-01-28T00:30:17.533Z,3.90
2024-01-28T00:31:17.551Z,3.87
2024-01-28T00:32:17.482Z,3.87
2024-01-28T00:33:18.094Z,3.84
2024-01-28T00:34:17.535Z,3.83
2024-01-28T00:35:17.458Z,3.76
2024-01-28T00:36:17.530Z,3.75
2024-01-28T00:37:17.439Z,3.73
2024-01-28T00:38:18.553Z,3.66
2024-01-28T00:39:17.465Z,3.61
2024-01-28T00:40:17.399Z,3.54
2024-01-28T00:41:17.398Z,3.54
2024-01-28T00:42:17.590Z,3.43
2024-01-28T00:43:17.398Z,3.42
2024-01-28T00:44:17.364Z,3.39
2024-01-28T00:45:17.404Z,3.39
2024-01-28T00:46:17.340Z,3.29
2024-01-28T00:47:17.392Z,3.29
2024-01-28T00:48:17.491Z,3.23
2024-01-28T00:49:17.525Z,3.21
2024-01-28T00:50:17.524Z,3.14
2024-01-28T00:51:17.327Z,3.15
2024-01-28T00:52:17.280Z,3.13
2024-01-28T00:53:17.329Z,3.06
2024-01-28T00:54:17.288Z,3.02
2024-01-28T00:55:17.261Z,3.03
2024-01-28T00:56:17.383Z,3.00
2024-01-28T00:57:17.250Z,2.96
2024-01-28T00:58:17.231Z,2.97
2024-01-28T00:59:17.243Z,2.93
2024-01-28T01:00:17.220Z,2.92
2024-01-28T01:01:17.221Z,2.92
2024-01-28T01:02:17.232Z,2.85
2024-01-28T01:03:17.253Z,2.84
2024-01-28T01:04:17.539Z,2.82
2024-01-28T01:05:17.192Z,2.78
2024-01-28T01:06:17.219Z,2.81
2024-01-28T01:07:17.295Z,2.71
2024-01-28T01:08:17.117Z,2.67
2024-01-28T01:09:17.150Z,2.64
2024-01-28T01:10:17.097Z,2.59
2024-01-28T01:11:17.096Z,2.56
2024-01-28T01:12:17.109Z,2.52
2024-01-28T01:13:17.067Z,2.52
2024-01-28T01:14:17.084Z,2.41
2024-01-28T01:15:17.106Z,2.38
2024-01-28T01:16:17.040Z,2.25
2024-01-28T01:17:17.040Z,2.25
2024-01-28T01:18:17.152Z,2.21
2024-01-28T01:19:17.135Z,2.16
2024-01-28T01:20:17.042Z,2.17
2024-01-28T01:21:17.042Z,2.18
2024-01-28T01:22:16.975Z,2.12
2024-01-28T01:23:16.976Z,2.14
2024-01-28T01:24:17.020Z,2.14
2024-01-28T01:25:16.958Z,2.16
2024-01-28T01:26:16.932Z,2.09
2024-01-28T01:27:17.053Z,2.09
2024-01-28T01:28:17.047Z,2.06
2024-01-28T01:29:16.928Z,2.02
2024-01-28T01:30:16.945Z,1.99
2024-01-28T01:31:16.893Z,1.99
2024-01-28T01:32:16.862Z,1.98
2024-01-28T01:33:17.021Z,1.95
2024-01-28T01:34:17.041Z,1.98
2024-01-28T01:35:16.926Z,1.91
2024-01-28T01:36:16.877Z,1.90
2024-01-28T01:37:16.828Z,1.90
2024-01-28T01:38:16.805Z,1.84
2024-01-28T01:39:16.860Z,1.88
2024-01-28T01:40:16.826Z,1.88
2024-01-28T01:41:16.789Z,1.86
2024-01-28T01:42:16.810Z,1.86
2024-01-28T01:43:16.841Z,1.84
2024-01-28T01:44:16.774Z,1.83
2024-01-28T01:45:16.815Z,1.83
2024-01-28T01:46:16.733Z,1.83
2024-01-28T01:47:16.748Z,1.80
2024-01-28T01:48:16.874Z,1.76
2024-01-28T01:49:16.925Z,1.70
2024-01-28T01:50:16.719Z,1.69
2024-01-28T01:51:16.714Z,1.69
2024-01-28T01:52:16.682Z,1.70
2024-01-28T01:53:16.680Z,1.69
2024-01-28T01:54:16.693Z,1.66
2024-01-28T01:55:16.662Z,1.66
2024-01-28T01:56:16.636Z,1.63
2024-01-28T01:57:17.189Z,1.68
2024-01-28T01:58:16.635Z,1.70
2024-01-28T01:59:16.630Z,1.68
2024-01-28T02:00:16.974Z,1.66
2024-01-28T02:01:16.640Z,1.65
2024-01-28T02:02:16.573Z,1.65
2024-01-28T02:03:16.648Z,1.65
2024-01-28T02:04:16.622Z,1.62
2024-01-28T02:05:16.575Z,1.63
2024-01-28T02:06:16.561Z,1.60
2024-01-28T02:07:16.537Z,1.60
2024-01-28T02:08:16.528Z,1.59
2024-01-28T02:09:17.490Z,1.55
2024-01-28T02:10:16.508Z,1.58
2024-01-28T02:11:16.492Z,1.54
2024-01-28T02:12:16.500Z,1.58
2024-01-28T02:13:16.484Z,1.54
2024-01-28T02:14:16.476Z,1.51
2024-01-28T02:15:16.494Z,1.48
2024-01-28T02:16:16.436Z,1.45
2024-01-28T02:17:16.436Z,1.42
2024-01-28T02:18:16.498Z,1.44
2024-01-28T02:19:16.532Z,1.41
2024-01-28T02:20:16.399Z,1.41
2024-01-28T02:21:16.952Z,1.41
2024-01-28T02:22:16.407Z,1.36
2024-01-28T02:23:16.371Z,1.37
2024-01-28T02:24:16.424Z,1.40
2024-01-28T02:25:16.396Z,1.37
2024-01-28T02:26:16.352Z,1.41
2024-01-28T02:27:16.383Z,1.34
2024-01-28T02:28:16.325Z,1.33
2024-01-28T02:29:16.360Z,1.36
2024-01-28T02:30:16.310Z,1.34
2024-01-28T02:31:16.293Z,1.33
2024-01-28T02:32:16.286Z,1.29
2024-01-28T02:33:16.427Z,1.29
2024-01-28T02:34:16.388Z,1.30
2024-01-28T02:35:16.271Z,1.33
2024-01-28T02:36:16.283Z,1.32
2024-01-28T02:37:16.263Z,1.30
2024-01-28T02:38:16.239Z,1.29
2024-01-28T02:39:16.307Z,1.29
2024-01-28T02:40:16.241Z,1.30
2024-01-28T02:41:16.201Z,1.26
2024-01-28T02:42:16.210Z,1.29
2024-01-28T02:43:16.170Z,1.23
2024-01-28T02:44:16.181Z,1.24
2024-01-28T02:45:16.313Z,1.23
2024-01-28T02:46:16.147Z,1.23
2024-01-28T02:47:16.143Z,1.23
2024-01-28T02:48:16.160Z,1.18
2024-01-28T02:49:16.839Z,1.23
2024-01-28T02:50:16.108Z,1.18
2024-01-28T02:51:16.140Z,1.23
2024-01-28T02:52:16.081Z,1.20
2024-01-28T02:53:16.077Z,1.22
2024-01-28T02:54:16.155Z,1.20
2024-01-28T02:55:16.048Z,1.24
2024-01-28T02:56:16.051Z,1.22
2024-01-28T02:57:16.114Z,1.16
2024-01-28T02:58:16.021Z,1.20
2024-01-28T02:59:16.051Z,1.20
2024-01-28T03:00:16.168Z,1.23
2024-01-28T03:01:16.095Z,1.20
2024-01-28T03:02:15.990Z,1.22
2024-01-28T03:03:16.139Z,1.24
2024-01-28T03:04:16.431Z,1.23
2024-01-28T03:05:15.971Z,1.20
2024-01-28T03:06:16.036Z,1.24
2024-01-28T03:07:16.233Z,1.22
2024-01-28T03:08:15.937Z,1.22
2024-01-28T03:09:15.971Z,1.20
2024-01-28T03:10:15.906Z,1.16
2024-01-28T03:11:15.902Z,1.18
2024-01-28T03:12:15.935Z,1.16
2024-01-28T03:13:15.896Z,1.14
2024-01-28T03:14:15.888Z,1.16
2024-01-28T03:15:15.861Z,1.18
2024-01-28T03:16:15.853Z,1.15
2024-01-28T03:17:15.866Z,1.16
2024-01-28T03:18:15.886Z,1.18
2024-01-28T03:19:15.919Z,1.18
2024-01-28T03:20:15.823Z,1.20
2024-01-28T03:21:15.993Z,1.18
2024-01-28T03:22:15.802Z,1.26
2024-01-28T03:23:15.790Z,1.24
2024-01-28T03:24:15.866Z,1.22
2024-01-28T03:25:15.767Z,1.23
2024-01-28T03:26:15.780Z,1.26
2024-01-28T03:27:15.823Z,1.27
2024-01-28T03:28:15.763Z,1.30
2024-01-28T03:29:15.749Z,1.24
2024-01-28T03:30:15.754Z,1.24
2024-01-28T03:31:15.735Z,1.23
2024-01-28T03:32:15.703Z,1.22
2024-01-28T03:33:15.781Z,1.23
2024-01-28T03:34:15.818Z,1.22
2024-01-28T03:35:15.662Z,1.20
2024-01-28T03:36:15.694Z,1.23
2024-01-28T03:37:15.658Z,1.18
2024-01-28T03:38:15.636Z,1.18
2024-01-28T03:39:15.667Z,1.22
2024-01-28T03:40:15.608Z,1.15
2024-01-28T03:41:15.623Z,1.16
2024-01-28T03:42:15.602Z,1.15
2024-01-28T03:43:15.603Z,1.14
2024-01-28T03:44:15.581Z,1.12
2024-01-28T03:45:15.601Z,1.12
2024-01-28T03:46:15.551Z,1.08
2024-01-28T03:47:15.545Z,1.06
2024-01-28T03:48:15.615Z,1.06
2024-01-28T03:49:15.657Z,1.04
2024-01-28T03:50:15.531Z,1.05
2024-01-28T03:51:15.511Z,1.02
2024-01-28T03:52:15.487Z,0.97
2024-01-28T03:53:15.512Z,1.00
2024-01-28T03:54:15.541Z,0.98
2024-01-28T03:55:15.468Z,1.02
2024-01-28T03:56:15.448Z,0.98
2024-01-28T03:57:15.471Z,0.94
2024-01-28T03:58:15.435Z,0.94
2024-01-28T03:59:15.449Z,0.91
2024-01-28T04:00:15.461Z,0.90
2024-01-28T04:01:15.535Z,0.87
2024-01-28T04:02:15.441Z,0.80
2024-01-28T04:03:15.412Z,0.76
2024-01-28T04:04:15.409Z,0.75
2024-01-28T04:05:15.440Z,0.70
2024-01-28T04:06:15.407Z,0.68
2024-01-28T04:07:15.415Z,0.66
2024-01-28T04:08:15.337Z,0.62
2024-01-28T04:09:15.404Z,0.65
2024-01-28T04:10:15.310Z,0.62
2024-01-28T04:11:15.310Z,0.57
2024-01-28T04:12:15.321Z,0.58
2024-01-28T04:13:15.295Z,0.53
2024-01-28T04:14:15.296Z,0.55
2024-01-28T04:15:15.308Z,0.49
2024-01-28T04:16:15.254Z,0.50
2024-01-28T04:17:15.241Z,0.51
2024-01-28T04:18:15.335Z,0.51
2024-01-28T04:19:15.351Z,0.57
2024-01-28T04:20:15.217Z,0.57
2024-01-28T04:21:15.222Z,0.61
2024-01-28T04:22:15.190Z,0.57
2024-01-28T04:23:15.195Z,0.58
2024-01-28T04:24:15.205Z,0.61
2024-01-28T04:25:15.176Z,0.68
2024-01-28T04:26:15.168Z,0.66
2024-01-28T04:27:15.185Z,0.69
2024-01-28T04:28:15.136Z,0.62
2024-01-28T04:29:15.144Z,0.65
2024-01-28T04:30:15.271Z,0.62
2024-01-28T04:31:15.147Z,0.61
2024-01-28T04:32:15.085Z,0.60
2024-01-28T04:33:15.157Z,0.60
2024-01-28T04:34:15.157Z,0.61
2024-01-28T04:35:15.074Z,0.60
2024-01-28T04:36:15.079Z,0.58
2024-01-28T04:37:15.075Z,0.65
2024-01-28T04:38:15.053Z,0.57
2024-01-28T04:39:15.083Z,0.60
2024-01-28T04:40:15.018Z,0.60
2024-01-28T04:41:15.001Z,0.60
2024-01-28T04:42:15.019Z,0.61
2024-01-28T04:43:14.993Z,0.57
2024-01-28T04:44:15.001Z,0.60
2024-01-28T04:45:15.024Z,0.60
2024-01-28T04:46:14.959Z,0.57
2024-01-28T04:47:14.966Z,0.57
2024-01-28T04:48:15.074Z,0.53
2024-01-28T04:49:15.054Z,0.57
2024-01-28T04:50:14.913Z,0.58
2024-01-28T04:51:14.984Z,0.61
2024-01-28T04:52:14.897Z,0.61
2024-01-28T04:53:14.894Z,0.61
2024-01-28T04:54:14.912Z,0.65
2024-01-28T04:55:14.875Z,0.65
2024-01-28T04:56:14.853Z,0.65
2024-01-28T04:57:14.882Z,0.58
2024-01-28T04:58:14.831Z,0.61
2024-01-28T04:59:14.857Z,0.58
2024-01-28T05:00:14.876Z,0.55
2024-01-28T05:01:14.928Z,0.51
2024-01-28T05:02:14.798Z,0.53
2024-01-28T05:03:14.931Z,0.53
2024-01-28T05:04:15.009Z,0.55
2024-01-28T05:05:14.801Z,0.51
2024-01-28T05:06:14.852Z,0.51
2024-01-28T05:07:15.016Z,0.50
2024-01-28T05:08:14.734Z,0.53
2024-01-28T05:09:14.779Z,0.53
2024-01-28T05:10:14.757Z,0.57
2024-01-28T05:11:14.715Z,0.57
2024-01-28T05:12:14.713Z,0.55
2024-01-28T05:13:14.708Z,0.62
2024-01-28T05:14:14.692Z,0.66
2024-01-28T05:15:14.677Z,0.60
2024-01-28T05:16:14.775Z,0.61
2024-01-28T05:17:14.694Z,0.60
2024-01-28T05:18:14.743Z,0.58
2024-01-28T05:19:14.910Z,0.55
2024-01-28T05:20:14.690Z,0.55
2024-01-28T05:21:14.708Z,0.53
2024-01-28T05:22:14.664Z,0.53
2024-01-28T05:23:14.610Z,0.55
2024-01-28T05:24:14.697Z,0.53
2024-01-28T05:25:14.713Z,0.51
2024-01-28T05:26:14.682Z,0.50
2024-01-28T05:27:14.697Z,0.50
2024-01-28T05:28:14.531Z,0.44
2024-01-28T05:29:14.621Z,0.44
2024-01-28T05:30:14.722Z,0.44
2024-01-28T05:31:14.660Z,0.42
2024-01-28T05:32:14.537Z,0.39
2024-01-28T05:33:14.742Z,0.36
2024-01-28T05:34:14.549Z,0.35
2024-01-28T05:35:14.480Z,0.33
2024-01-28T05:36:14.523Z,0.38
2024-01-28T05:37:14.464Z,0.36
2024-01-28T05:38:14.438Z,0.33
2024-01-28T05:39:14.450Z,0.35
2024-01-28T05:40:14.449Z,0.39
2024-01-28T05:41:14.421Z,0.38
2024-01-28T05:42:14.412Z,0.39
2024-01-28T05:43:14.406Z,0.44
2024-01-28T05:44:14.390Z,0.39
2024-01-28T05:45:14.401Z,0.44
2024-01-28T05:46:14.352Z,0.31
2024-01-28T05:47:14.348Z,0.26
2024-01-28T05:48:14.454Z,0.24
2024-01-28T05:49:14.502Z,0.28
2024-01-28T05:50:14.313Z,0.26
2024-01-28T05:51:14.356Z,0.28
2024-01-28T05:52:14.325Z,0.29
2024-01-28T05:53:14.291Z,0.32
2024-01-28T05:54:14.327Z,0.36
2024-01-28T05:55:14.268Z,0.29
2024-01-28T05:56:14.267Z,0.24
2024-01-28T05:57:14.300Z,0.20
2024-01-28T05:58:14.233Z,0.21
2024-01-28T05:59:14.251Z,0.14
2024-01-28T06:00:14.247Z,0.18
2024-01-28T06:01:14.368Z,0.15
2024-01-28T06:02:14.194Z,0.13
2024-01-28T06:03:14.216Z,0.17
2024-01-28T06:04:14.201Z,0.18
2024-01-28T06:05:14.179Z,0.18
2024-01-28T06:06:14.255Z,0.21
2024-01-28T06:07:14.181Z,0.21
2024-01-28T06:08:14.122Z,0.28
2024-01-28T06:09:14.164Z,0.26
2024-01-28T06:10:14.121Z,0.23
2024-01-28T06:11:14.112Z,0.20
2024-01-28T06:12:14.145Z,0.26
2024-01-28T06:13:14.287Z,0.26
2024-01-28T06:14:14.103Z,0.24
2024-01-28T06:15:14.114Z,0.24
2024-01-28T06:16:14.043Z,0.29
2024-01-28T06:17:14.054Z,0.28
2024-01-28T06:18:14.072Z,0.29
2024-01-28T06:19:14.139Z,0.29
2024-01-28T06:20:14.002Z,0.33
2024-01-28T06:21:14.030Z,0.31
2024-01-28T06:22:13.981Z,0.29
2024-01-28T06:23:14.007Z,0.29
2024-01-28T06:24:14.057Z,0.31
2024-01-28T06:25:13.969Z,0.26
2024-01-28T06:26:13.961Z,0.24
2024-01-28T06:27:13.943Z,0.28
2024-01-28T06:28:13.928Z,0.29
2024-01-28T06:29:13.949Z,0.26
2024-01-28T06:30:13.951Z,0.28
2024-01-28T06:31:13.908Z,0.26
2024-01-28T06:32:13.886Z,0.24
2024-01-28T06:33:14.022Z,0.21
2024-01-28T06:34:13.999Z,0.23
2024-01-28T06:35:13.864Z,0.18
2024-01-28T06:36:13.890Z,0.17
2024-01-28T06:37:13.857Z,0.18
2024-01-28T06:38:13.828Z,0.18
2024-01-28T06:39:13.863Z,0.18
2024-01-28T06:40:13.820Z,0.18
2024-01-28T06:41:13.805Z,0.23
2024-01-28T06:42:13.812Z,0.28
2024-01-28T06:43:17.045Z,0.31
2024-01-28T06:44:13.780Z,0.23
2024-01-28T06:45:13.828Z,0.26
2024-01-28T06:46:13.765Z,0.28
2024-01-28T06:47:13.752Z,0.26
2024-01-28T06:48:13.846Z,0.20
2024-01-28T06:49:16.789Z,0.18
2024-01-28T06:50:13.797Z,0.18
2024-01-28T06:51:13.788Z,0.17
2024-01-28T06:52:13.696Z,0.14
2024-01-28T06:53:13.702Z,0.15
2024-01-28T06:54:13.738Z,0.17
2024-01-28T06:55:13.674Z,0.15
2024-01-28T06:56:13.652Z,0.18
2024-01-28T06:57:13.659Z,0.20
2024-01-28T06:58:13.632Z,0.18
2024-01-28T06:59:13.640Z,0.18
2024-01-28T07:00:13.635Z,0.14
2024-01-28T07:01:13.862Z,0.15
2024-01-28T07:02:13.654Z,0.15
2024-01-28T07:03:13.667Z,0.17
2024-01-28T07:04:13.647Z,0.20
2024-01-28T07:05:13.590Z,0.20
2024-01-28T07:06:13.602Z,0.21
2024-01-28T07:07:13.582Z,0.23
2024-01-28T07:08:13.531Z,0.23
2024-01-28T07:09:13.605Z,0.23
2024-01-28T07:10:13.537Z,0.26
2024-01-28T07:11:13.516Z,0.29
2024-01-28T07:12:13.561Z,0.29
2024-01-28T07:13:13.508Z,0.28
2024-01-28T07:14:13.482Z,0.28
2024-01-28T07:15:13.543Z,0.28
2024-01-28T07:16:13.481Z,0.28
2024-01-28T07:17:13.452Z,0.21
2024-01-28T07:18:14.148Z,0.21
2024-01-28T07:19:13.492Z,0.21
2024-01-28T07:20:13.430Z,0.21
2024-01-28T07:21:13.454Z,0.20
2024-01-28T07:22:13.627Z,0.21
2024-01-28T07:23:13.391Z,0.20
2024-01-28T07:24:13.395Z,0.18
2024-01-28T07:25:13.407Z,0.17
2024-01-28T07:26:13.902Z,0.17
2024-01-28T07:27:13.953Z,0.21
2024-01-28T07:28:13.326Z,0.20
2024-01-28T07:29:13.334Z,0.23
2024-01-28T07:30:13.430Z,0.23
2024-01-28T07:31:13.294Z,0.21
2024-01-28T07:32:13.289Z,0.24
2024-01-28T07:33:13.424Z,0.26
2024-01-28T07:34:13.347Z,0.23
2024-01-28T07:35:13.286Z,0.24
2024-01-28T07:36:13.263Z,0.24
2024-01-28T07:37:13.246Z,0.23
2024-01-28T07:38:13.284Z,0.26
2024-01-28T07:39:13.277Z,0.24
2024-01-28T07:40:13.234Z,0.28
2024-01-28T07:41:13.223Z,0.28
2024-01-28T07:42:13.246Z,0.31
2024-01-28T07:43:13.195Z,0.35
2024-01-28T07:44:13.207Z,0.35
2024-01-28T07:45:13.200Z,0.39
2024-01-28T07:46:13.163Z,0.41
2024-01-28T07:47:13.162Z,0.46
2024-01-28T07:48:13.315Z,0.49
2024-01-28T07:49:13.286Z,0.49
2024-01-28T07:50:13.220Z,0.51
2024-01-28T07:51:13.154Z,0.47
2024-01-28T07:52:13.095Z,0.49
2024-01-28T07:53:13.101Z,0.51
2024-01-28T07:54:13.123Z,0.53
2024-01-28T07:55:13.176Z,0.57
2024-01-28T07:56:13.061Z,0.60
2024-01-28T07:57:13.185Z,0.61
2024-01-28T07:58:13.039Z,0.66
2024-01-28T07:59:13.060Z,0.66
2024-01-28T08:00:13.093Z,0.72
2024-01-28T08:01:13.026Z,0.70
2024-01-28T08:02:13.118Z,0.70
2024-01-28T08:03:13.048Z,0.79
2024-01-28T08:04:13.104Z,0.84
2024-01-28T08:05:12.998Z,0.88
2024-01-28T08:06:12.992Z,0.93
2024-01-28T08:07:13.024Z,0.93
2024-01-28T08:08:16.118Z,1.00
2024-01-28T08:09:12.952Z,1.00
2024-01-28T08:10:12.933Z,1.06
2024-01-28T08:11:12.921Z,1.11
2024-01-28T08:12:13.041Z,1.22
2024-01-28T08:13:12.895Z,1.22
2024-01-28T08:14:12.919Z,1.23
2024-01-28T08:15:12.989Z,1.29
2024-01-28T08:16:12.861Z,1.33
2024-01-28T08:17:13.160Z,1.37
2024-01-28T08:18:13.007Z,1.44
2024-01-28T08:19:13.111Z,1.52
2024-01-28T08:20:12.844Z,1.52
2024-01-28T08:21:12.848Z,1.52
2024-01-28T08:22:12.821Z,1.60
2024-01-28T08:23:12.783Z,1.63
2024-01-28T08:24:12.824Z,1.66
2024-01-28T08:25:13.001Z,1.70
2024-01-28T08:26:12.768Z,1.68
2024-01-28T08:27:12.807Z,1.73
2024-01-28T08:28:12.740Z,1.76
2024-01-28T08:29:12.770Z,1.81
2024-01-28T08:30:12.910Z,1.81
2024-01-28T08:31:12.705Z,1.86
2024-01-28T08:32:12.710Z,1.88
2024-01-28T08:33:12.846Z,1.91
2024-01-28T08:34:12.891Z,1.98
2024-01-28T08:35:12.850Z,2.06
2024-01-28T08:36:12.708Z,2.09
2024-01-28T08:37:12.654Z,2.17
2024-01-28T08:38:12.643Z,2.21
2024-01-28T08:39:12.683Z,2.21
2024-01-28T08:40:12.679Z,2.25
2024-01-28T08:41:12.751Z,2.31
2024-01-28T08:42:12.609Z,2.35
2024-01-28T08:43:12.628Z,2.38
2024-01-28T08:44:12.600Z,2.41
2024-01-28T08:45:12.619Z,2.43
2024-01-28T08:46:12.715Z,2.38
2024-01-28T08:47:12.601Z,2.45
2024-01-28T08:48:12.781Z,2.42
2024-01-28T08:49:13.647Z,2.43
2024-01-28T08:50:12.576Z,2.48
2024-01-28T08:51:12.615Z,2.46
2024-01-28T08:52:12.559Z,2.46
2024-01-28T08:53:12.548Z,2.49
2024-01-28T08:54:12.542Z,2.54
2024-01-28T08:55:12.546Z,2.59
2024-01-28T08:56:12.472Z,2.66
2024-01-28T08:57:12.468Z,2.69
2024-01-28T08:58:12.484Z,2.74
2024-01-28T08:59:12.480Z,2.79
2024-01-28T09:00:12.509Z,2.82
2024-01-28T09:01:12.512Z,2.89
2024-01-28T09:02:12.454Z,2.97
2024-01-28T09:03:12.456Z,2.99
2024-01-28T09:04:12.737Z,3.10
2024-01-28T09:05:12.563Z,3.13
2024-01-28T09:06:12.572Z,3.23
2024-01-28T09:07:12.455Z,3.21
2024-01-28T09:08:12.387Z,3.31
2024-01-28T09:09:12.935Z,3.36
2024-01-28T09:10:12.540Z,3.39
2024-01-28T09:11:12.370Z,3.39
2024-01-28T09:12:12.326Z,3.50
2024-01-28T09:13:12.361Z,3.45
2024-01-28T09:14:12.325Z,3.47
2024-01-28T09:15:12.362Z,3.50
2024-01-28T09:16:12.303Z,3.54
2024-01-28T09:17:12.877Z,3.61
2024-01-28T09:18:12.367Z,3.61
2024-01-28T09:19:12.356Z,3.61
2024-01-28T09:20:12.489Z,3.65
2024-01-28T09:21:12.293Z,3.61
2024-01-28T09:22:12.723Z,3.68
2024-01-28T09:23:12.206Z,3.65
2024-01-28T09:24:12.260Z,3.65
2024-01-28T09:25:12.200Z,3.65
2024-01-28T09:26:12.205Z,3.72
2024-01-28T09:27:12.183Z,3.72
2024-01-28T09:28:12.163Z,3.78
2024-01-28T09:29:12.142Z,3.78
2024-01-28T09:30:12.179Z,3.84
2024-01-28T09:31:12.232Z,3.87
2024-01-28T09:32:12.105Z,3.88
2024-01-28T09:33:12.233Z,3.88
2024-01-28T09:34:12.132Z,3.94
2024-01-28T09:35:12.098Z,3.97
2024-01-28T09:36:12.136Z,3.96
2024-01-28T09:37:12.074Z,4.00
2024-01-28T09:38:12.061Z,4.06
2024-01-28T09:39:12.097Z,4.11
2024-01-28T09:40:12.027Z,4.16
2024-01-28T09:41:12.040Z,4.15
2024-01-28T09:42:12.121Z,4.20
2024-01-28T09:43:12.000Z,4.26
2024-01-28T09:44:12.259Z,4.29
2024-01-28T09:45:12.035Z,4.33
2024-01-28T09:46:11.976Z,4.33
2024-01-28T09:47:11.976Z,4.40
2024-01-28T09:48:12.038Z,4.37
2024-01-28T09:49:12.095Z,4.40
2024-01-28T09:50:12.034Z,4.37
2024-01-28T09:51:11.977Z,4.42
2024-01-28T09:52:11.984Z,4.41
2024-01-28T09:53:12.101Z,4.41
2024-01-28T09:54:11.939Z,4.42
2024-01-28T09:55:11.930Z,4.42
2024-01-28T09:56:11.913Z,4.47
2024-01-28T09:57:11.890Z,4.42
2024-01-28T09:58:11.836Z,4.47
2024-01-28T09:59:11.886Z,4.44
2024-01-28T10:00:11.911Z,4.47
2024-01-28T10:01:11.890Z,4.52
2024-01-28T10:02:11.879Z,4.55
2024-01-28T10:03:11.927Z,4.63
2024-01-28T10:04:12.048Z,4.62
2024-01-28T10:05:11.846Z,4.66
2024-01-28T10:06:11.819Z,4.67
2024-01-28T10:07:11.875Z,4.72
2024-01-28T10:08:11.785Z,4.75
2024-01-28T10:09:11.919Z,4.77
2024-01-28T10:10:11.738Z,4.75
2024-01-28T10:11:18.056Z,4.82
2024-01-28T10:12:11.773Z,4.84
2024-01-28T10:13:11.688Z,4.89
2024-01-28T10:14:12.075Z,4.86
2024-01-28T10:15:11.712Z,4.92
2024-01-28T10:16:11.706Z,4.94
2024-01-28T10:17:11.651Z,4.96
2024-01-28T10:18:11.743Z,4.99
2024-01-28T10:19:11.784Z,5.02
2024-01-28T10:20:11.666Z,5.04
2024-01-28T10:21:11.662Z,5.04
2024-01-28T10:22:18.475Z,5.07
2024-01-28T10:23:11.586Z,5.12
2024-01-28T10:24:11.656Z,5.17
2024-01-28T10:25:11.577Z,5.17
2024-01-28T10:26:11.661Z,5.18
2024-01-28T10:27:11.617Z,5.22
2024-01-28T10:28:11.552Z,5.21
2024-01-28T10:29:11.524Z,5.21
2024-01-28T10:30:11.527Z,5.22
2024-01-28T10:31:11.521Z,5.25
2024-01-28T10:32:11.490Z,5.30
2024-01-28T10:33:14.470Z,5.31
2024-01-28T10:34:11.552Z,5.30
2024-01-28T10:35:11.560Z,5.27
2024-01-28T10:36:11.499Z,5.31
2024-01-28T10:37:11.456Z,5.35
2024-01-28T10:38:11.440Z,5.35
2024-01-28T10:39:14.843Z,5.38
2024-01-28T10:40:11.470Z,5.35
2024-01-28T10:41:11.418Z,5.39
2024-01-28T10:42:11.457Z,5.42
2024-01-28T10:43:11.392Z,5.43
2024-01-28T10:44:11.364Z,5.48
2024-01-28T10:45:11.467Z,5.49
2024-01-28T10:46:11.428Z,5.51
2024-01-28T10:47:11.347Z,5.57
2024-01-28T10:48:11.451Z,5.56
2024-01-28T10:49:11.499Z,5.61
2024-01-28T10:50:11.364Z,5.63
2024-01-28T10:51:13.913Z,5.64
2024-01-28T10:52:11.291Z,5.64
2024-01-28T10:53:11.286Z,5.61
2024-01-28T10:54:11.316Z,5.64
2024-01-28T10:55:11.279Z,5.64
2024-01-28T10:56:11.334Z,5.68
2024-01-28T10:57:14.524Z,5.74
2024-01-28T10:58:11.248Z,5.75
2024-01-28T10:59:11.280Z,5.78
2024-01-28T11:00:11.320Z,5.79
2024-01-28T11:01:11.450Z,5.83
2024-01-28T11:02:11.218Z,5.90
2024-01-28T11:03:11.220Z,5.90
2024-01-28T11:04:11.352Z,5.90
2024-01-28T11:05:11.238Z,5.93
2024-01-28T11:06:11.389Z,5.99
2024-01-28T11:07:11.183Z,6.01
2024-01-28T11:08:11.127Z,6.00
2024-01-28T11:09:11.199Z,6.04
2024-01-28T11:10:11.110Z,6.03
2024-01-28T11:11:11.119Z,6.08
2024-01-28T11:12:11.129Z,6.09
2024-01-28T11:13:11.082Z,6.14
2024-01-28T11:14:11.080Z,6.14
2024-01-28T11:15:11.110Z,6.14
2024-01-28T11:16:11.055Z,6.18
2024-01-28T11:17:11.056Z,6.22
2024-01-28T11:18:11.118Z,6.22
2024-01-28T11:19:11.073Z,6.28
2024-01-28T11:20:11.005Z,6.31
2024-01-28T11:21:11.139Z,6.33
2024-01-28T11:22:10.982Z,6.40
2024-01-28T11:23:10.988Z,6.38
2024-01-28T11:24:10.983Z,6.46
2024-01-28T11:25:11.493Z,6.48
2024-01-28T11:26:10.952Z,6.54
2024-01-28T11:27:10.988Z,6.54
2024-01-28T11:28:10.944Z,6.56
2024-01-28T11:29:10.943Z,6.55
2024-01-28T11:30:11.007Z,6.61
2024-01-28T11:31:10.933Z,6.61
2024-01-28T11:32:10.887Z,6.66
2024-01-28T11:33:11.255Z,6.71
2024-01-28T11:34:11.040Z,6.67
2024-01-28T11:35:11.048Z,6.71
2024-01-28T11:36:10.934Z,6.69
2024-01-28T11:37:10.845Z,6.71
2024-01-28T11:38:10.851Z,6.73
2024-01-28T11:39:10.875Z,6.73
2024-01-28T11:40:10.808Z,6.74
2024-01-28T11:41:10.815Z,6.74
2024-01-28T11:42:10.863Z,6.74
2024-01-28T11:43:10.778Z,6.76
2024-01-28T11:44:10.763Z,6.80
2024-01-28T11:45:10.778Z,6.84
2024-01-28T11:46:10.756Z,6.84
2024-01-28T11:47:10.758Z,6.87
2024-01-28T11:48:11.312Z,6.85
2024-01-28T11:49:10.860Z,6.87
2024-01-28T11:50:12.882Z,6.87
2024-01-28T11:51:10.762Z,6.92
2024-01-28T11:52:10.688Z,6.89
2024-01-28T11:53:10.679Z,6.91
2024-01-28T11:54:10.687Z,6.91
2024-01-28T11:55:10.665Z,6.92
2024-01-28T11:56:10.680Z,6.95
2024-01-28T11:57:10.713Z,6.94
2024-01-28T11:58:10.656Z,6.92
2024-01-28T11:59:10.624Z,6.94
2024-01-28T12:00:10.640Z,6.94
2024-01-28T12:01:10.683Z,6.97
2024-01-28T12:02:10.588Z,6.97
2024-01-28T12:03:10.658Z,6.98
2024-01-28T12:04:10.577Z,7.05
2024-01-28T12:05:10.658Z,7.02
2024-01-28T12:06:10.608Z,7.10
2024-01-28T12:07:10.707Z,7.09
2024-01-28T12:08:10.553Z,7.16
2024-01-28T12:09:10.583Z,7.15
2024-01-28T12:10:10.536Z,7.15
2024-01-28T12:11:10.530Z,7.21
2024-01-28T12:12:10.543Z,7.20
2024-01-28T12:13:10.498Z,7.20
2024-01-28T12:14:10.479Z,7.16
2024-01-28T12:15:10.544Z,7.20
2024-01-28T12:16:10.501Z,7.23
2024-01-28T12:17:10.447Z,7.23
2024-01-28T12:18:10.677Z,7.25
2024-01-28T12:19:12.912Z,7.21
2024-01-28T12:20:10.431Z,7.23
2024-01-28T12:21:10.504Z,7.23
2024-01-28T12:22:10.396Z,7.23
2024-01-28T12:23:10.416Z,7.23
2024-01-28T12:24:10.472Z,7.24
2024-01-28T12:25:10.453Z,7.23
2024-01-28T12:26:10.393Z,7.27
2024-01-28T12:27:10.388Z,7.28
2024-01-28T12:28:10.341Z,7.30
2024-01-28T12:29:10.339Z,7.37
2024-01-28T12:30:10.475Z,7.34
2024-01-28T12:31:10.677Z,7.37
2024-01-28T12:32:10.288Z,7.39
2024-01-28T12:33:10.478Z,7.39
2024-01-28T12:34:10.432Z,7.39
2024-01-28T12:35:10.332Z,7.43
2024-01-28T12:36:10.273Z,7.46
2024-01-28T12:37:10.254Z,7.50
2024-01-28T12:38:10.221Z,7.49
2024-01-28T12:39:10.305Z,7.50
2024-01-28T12:40:10.228Z,7.53
2024-01-28T12:41:10.220Z,7.58
2024-01-28T12:42:10.211Z,7.57
2024-01-28T12:43:11.010Z,7.57
2024-01-28T12:44:10.176Z,7.55
2024-01-28T12:45:10.501Z,7.60
2024-01-28T12:46:10.200Z,7.60
2024-01-28T12:47:10.152Z,7.61
2024-01-28T12:48:10.230Z,7.64
2024-01-28T12:49:12.872Z,7.64
2024-01-28T12:50:10.203Z,7.67
2024-01-28T12:51:10.213Z,7.67
2024-01-28T12:52:10.099Z,7.71
2024-01-28T12:53:10.080Z,7.71
2024-01-28T12:54:10.100Z,7.68
2024-01-28T12:55:10.107Z,7.71
2024-01-28T12:56:10.070Z,7.71
2024-01-28T12:57:10.202Z,7.71
2024-01-28T12:58:10.043Z,7.71
2024-01-28T12:59:10.073Z,7.68
2024-01-28T13:00:10.199Z,7.74
2024-01-28T13:01:10.133Z,7.71
2024-01-28T13:02:10.054Z,7.72
2024-01-28T13:03:10.010Z,7.75
2024-01-28T13:04:10.081Z,7.71
2024-01-28T13:05:10.073Z,7.71
2024-01-28T13:06:10.089Z,7.74
2024-01-28T13:07:10.001Z,7.74
2024-01-28T13:08:09.950Z,7.75
2024-01-28T13:09:09.916Z,7.74
2024-01-28T13:10:11.027Z,7.77
2024-01-28T13:11:09.938Z,7.80
2024-01-28T13:12:09.886Z,7.80
2024-01-28T13:13:09.962Z,7.82
2024-01-28T13:14:09.885Z,7.82
2024-01-28T13:15:09.906Z,7.85
2024-01-28T13:16:09.991Z,7.83
2024-01-28T13:17:09.868Z,7.87
2024-01-28T13:18:24.918Z,7.83